Time;durP1;ratioP1;P1;durP2;ratioP2;P2;SDS_P1;SDS_P2;PMS_P1;PMS_P2;Temp;Humidity;BMP_temperature;BMP_pressure;BME280_temperature;BME280_humidity;BME280_pressure;Samples;Min_cycle;Max_cycle;Signal;HPM_P1;HPM_P2
2022/03/30 00:01:15;;;;;;;28.63;23.83;;;;;;;10.17;57.59;99977.16;4946808;28;20415;-69
2022/03/30 00:03:40;;;;;;;28.58;23.98;;;;;;;10.07;57.65;99975.47;4947684;28;20551;-70
2022/03/30 00:06:05;;;;;;;35.47;23.65;;;;;;;10.06;56.63;99963.22;4948650;28;20027;-70
2022/03/30 00:08:31;;;;;;;27.98;23.35;;;;;;;10.14;56.98;99967.75;4933942;28;20659;-70
2022/03/30 00:10:56;;;;;;;31.20;24.00;;;;;;;10.06;56.90;99965.03;4954457;28;20305;-69
2022/03/30 00:13:22;;;;;;;28.60;23.02;;;;;;;10.08;56.65;99969.19;4956874;28;20023;-69
2022/03/30 00:15:47;;;;;;;29.75;23.38;;;;;;;10.16;56.13;99960.47;4959506;28;20010;-69
2022/03/30 00:18:13;;;;;;;29.63;23.40;;;;;;;10.22;55.68;99966.97;4954266;28;20034;-69
2022/03/30 00:20:38;;;;;;;29.65;22.50;;;;;;;10.13;55.89;99963.44;4953673;28;20028;-68
2022/03/30 00:23:03;;;;;;;32.78;23.20;;;;;;;10.13;56.41;99963.44;4967242;28;20018;-69
2022/03/30 00:25:29;;;;;;;30.40;23.27;;;;;;;10.16;56.29;99960.47;4969208;28;20018;-69
2022/03/30 00:27:54;;;;;;;32.00;23.25;;;;;;;10.13;56.32;99960.78;4971702;28;20472;-70
2022/03/30 00:30:20;;;;;;;29.63;22.77;;;;;;;10.07;56.23;99951.66;4938728;28;20025;-69
2022/03/30 00:32:45;;;;;;;26.50;22.58;;;;;;;10.01;56.06;99949.66;4943343;28;20534;-69
2022/03/30 00:35:10;;;;;;;30.35;22.60;;;;;;;10.00;56.26;99955.91;4944528;28;20027;-69
2022/03/30 00:37:36;;;;;;;27.25;23.13;;;;;;;9.93;56.30;99958.31;4954541;28;20049;-69
2022/03/30 00:40:03;;;;;;;28.05;22.63;;;;;;;9.92;56.17;99951.38;4960776;28;20023;-68
2022/03/30 00:42:29;;;;;;;29.35;23.13;;;;;;;9.90;56.44;99948.06;4961929;28;20856;-69
2022/03/30 00:44:54;;;;;;;29.30;22.63;;;;;;;9.93;56.13;99949.56;4949857;28;20118;-69
2022/03/30 00:47:22;;;;;;;26.55;22.23;;;;;;;9.91;56.05;99946.22;4951772;28;20025;-69
2022/03/30 00:49:48;;;;;;;28.17;22.33;;;;;;;9.89;55.84;99938.47;4940782;28;20577;-69
2022/03/30 00:52:13;;;;;;;26.30;21.23;;;;;;;9.84;55.78;99937.25;4961590;28;20882;-69
2022/03/30 00:54:40;;;;;;;28.70;22.58;;;;;;;9.95;55.52;99932.56;4951741;28;20023;-69
2022/03/30 00:57:06;;;;;;;28.23;23.10;;;;;;;9.89;56.00;99937.66;4959076;28;20091;-69
2022/03/30 00:59:32;;;;;;;28.73;21.70;;;;;;;9.89;55.99;99933.19;4934278;28;20041;-68
2022/03/30 01:01:59;;;;;;;28.52;22.05;;;;;;;9.84;55.54;99924.88;4951989;28;20894;-69
2022/03/30 01:04:26;;;;;;;32.42;22.17;;;;;;;9.95;54.94;99924.63;4938982;28;20027;-69
2022/03/30 01:06:51;;;;;;;27.85;21.98;;;;;;;9.82;55.93;99918.91;4952882;28;20455;-70
2022/03/30 01:09:16;;;;;;;28.67;22.27;;;;;;;9.73;56.72;99917.19;4970565;28;20019;-68
2022/03/30 01:11:42;;;;;;;28.85;22.33;;;;;;;9.91;56.14;99920.66;4970385;28;20033;-68
2022/03/30 01:14:07;;;;;;;29.33;22.67;;;;;;;9.83;56.65;99925.88;4956730;28;20018;-69
2022/03/30 01:16:32;;;;;;;28.90;21.92;;;;;;;9.89;55.66;99922.59;4971604;28;20938;-68
2022/03/30 01:19:06;;;;;;;30.00;22.65;;;;;;;9.76;56.80;99915.06;4968861;28;20293;-68
2022/03/30 01:21:31;;;;;;;29.13;22.87;;;;;;;9.83;56.80;99925.88;4933690;28;20554;-69
2022/03/30 01:23:57;;;;;;;27.50;22.20;;;;;;;9.71;57.57;99914.69;4957482;28;20548;-69
2022/03/30 01:26:23;;;;;;;26.85;22.00;;;;;;;9.69;58.33;99905.28;4951433;28;20010;-69
2022/03/30 01:28:49;;;;;;;29.77;21.42;;;;;;;9.66;58.10;99911.69;4964736;28;20271;-69
2022/03/30 01:33:58;;;;;;;28.60;21.92;;;;;;;9.63;58.50;99902.25;4961716;28;20081;-69
2022/03/30 01:36:25;;;;;;;29.75;21.92;;;;;;;9.69;58.43;99900.81;4965898;28;20015;-69
2022/03/30 01:38:51;;;;;;;29.10;22.42;;;;;;;9.63;58.37;99896.97;4962735;28;20046;-69
2022/03/30 01:41:16;;;;;;;26.95;21.92;;;;;;;9.68;59.40;99893.03;4962448;28;20112;-70
2022/03/30 01:43:41;;;;;;;33.38;23.13;;;;;;;9.66;58.91;99885.28;4963286;28;20029;-69
2022/03/30 01:46:07;;;;;;;32.40;22.90;;;;;;;9.51;58.77;99877.03;4951449;28;20650;-69
2022/03/30 01:48:32;;;;;;;29.45;22.70;;;;;;;9.49;59.22;99881.66;4955248;28;20158;-68
2022/03/30 01:50:59;;;;;;;31.52;23.55;;;;;;;9.47;58.89;99878.31;4962929;28;20135;-69
2022/03/30 01:53:25;;;;;;;26.73;21.50;;;;;;;9.47;59.00;99869.56;4973978;28;20088;-69
2022/03/30 01:55:50;;;;;;;30.13;21.45;;;;;;;9.46;58.68;99874.00;4958780;28;20011;-68
2022/03/30 01:58:16;;;;;;;28.55;22.60;;;;;;;9.46;58.35;99863.44;4973880;28;20202;-68
2022/03/30 02:00:41;;;;;;;28.17;21.90;;;;;;;9.52;58.10;99865.50;4953161;28;20678;-68
2022/03/30 02:03:08;;;;;;;26.75;21.65;;;;;;;9.57;58.09;99865.84;4939125;28;20034;-68
2022/03/30 02:05:33;;;;;;;32.38;22.13;;;;;;;9.51;57.51;99863.84;4966011;28;20015;-68
2022/03/30 02:07:59;;;;;;;26.80;21.95;;;;;;;9.44;58.76;99862.78;4962791;28;21277;-68
2022/03/30 02:10:24;;;;;;;31.90;22.55;;;;;;;9.44;58.68;99862.78;4978569;28;20016;-68
2022/03/30 02:12:50;;;;;;;26.30;21.63;;;;;;;9.43;58.34;99861.13;4975493;28;21053;-68
2022/03/30 02:15:15;;;;;;;30.00;21.77;;;;;;;9.43;58.33;99863.75;4977915;28;20011;-70
2022/03/30 02:17:41;;;;;;;29.80;21.08;;;;;;;9.38;58.54;99860.75;4997251;28;20018;-69
2022/03/30 02:20:07;;;;;;;27.13;21.30;;;;;;;9.37;58.68;99867.00;4979933;28;20011;-69
2022/03/30 02:22:32;;;;;;;28.40;22.05;;;;;;;9.38;58.91;99864.22;4998194;28;20259;-69
2022/03/30 02:24:58;;;;;;;28.98;22.27;;;;;;;9.36;59.18;99852.97;4976261;28;20014;-68
2022/03/30 02:27:23;;;;;;;28.05;21.80;;;;;;;9.34;59.48;99849.66;4977778;28;20063;-69
2022/03/30 02:29:49;;;;;;;31.33;22.17;;;;;;;9.40;59.07;99850.88;4972618;28;20022;-69
2022/03/30 02:32:15;;;;;;;30.90;22.77;;;;;;;9.27;59.26;99843.31;4948858;28;20010;-69
2022/03/30 02:34:41;;;;;;;27.85;21.60;;;;;;;9.41;59.05;99844.59;4938503;28;20441;-68
2022/03/30 02:37:07;;;;;;;26.15;21.98;;;;;;;9.43;59.22;99838.19;4936635;28;20018;-68
2022/03/30 02:39:32;;;;;;;29.52;22.40;;;;;;;9.27;59.72;99832.75;4954121;28;20044;-68
2022/03/30 02:41:57;;;;;;;33.08;22.05;;;;;;;9.37;59.97;99832.69;4954867;28;20018;-69
2022/03/30 02:44:23;;;;;;;28.58;22.08;;;;;;;9.43;59.69;99824.16;4947485;28;20795;-69
2022/03/30 02:46:49;;;;;;;26.65;20.88;;;;;;;9.44;59.31;99824.00;4936033;28;20598;-69
2022/03/30 02:49:14;;;;;;;27.73;22.23;;;;;;;9.28;59.33;99819.41;4942567;28;20448;-69
2022/03/30 02:51:40;;;;;;;29.45;22.33;;;;;;;9.21;59.81;99813.06;4942232;28;20014;-69
2022/03/30 02:54:06;;;;;;;28.60;21.63;;;;;;;9.21;59.47;99805.16;4952006;28;20057;-70
2022/03/30 02:56:31;;;;;;;28.02;21.90;;;;;;;9.17;59.88;99811.72;4965545;28;20336;-69
2022/03/30 02:58:56;;;;;;;28.73;23.05;;;;;;;9.26;59.62;99813.47;4962769;28;20467;-69
2022/03/30 03:01:22;;;;;;;30.17;22.92;;;;;;;9.22;60.25;99814.75;4951153;28;20026;-68
2022/03/30 03:03:47;;;;;;;28.25;21.73;;;;;;;9.14;60.38;99809.38;4956790;28;20025;-68
2022/03/30 03:06:13;;;;;;;33.83;22.58;;;;;;;9.11;60.29;99809.69;4953421;28;20406;-69
2022/03/30 03:08:38;;;;;;;29.30;21.98;;;;;;;9.09;62.44;99816.91;4962429;28;20017;-68
2022/03/30 03:11:03;;;;;;;33.80;23.40;;;;;;;9.13;62.90;99810.34;4963821;28;20030;-69
2022/03/30 03:13:29;;;;;;;28.05;22.10;;;;;;;9.08;63.57;99802.91;4956882;28;20430;-69
2022/03/30 03:15:54;;;;;;;30.00;22.50;;;;;;;9.18;63.86;99805.47;4955135;28;20027;-68
2022/03/30 03:18:20;;;;;;;32.17;23.52;;;;;;;9.16;63.57;99804.78;4934927;28;20415;-69
2022/03/30 03:20:46;;;;;;;29.30;22.73;;;;;;;9.09;64.06;99801.06;4952523;28;20033;-69
2022/03/30 03:23:11;;;;;;;31.30;22.35;;;;;;;8.95;64.88;99797.16;4950664;28;20125;-69
2022/03/30 03:25:37;;;;;;;30.55;22.33;;;;;;;8.93;64.83;99789.38;4949116;28;20027;-69
2022/03/30 03:28:03;;;;;;;30.30;23.00;;;;;;;8.89;64.84;99800.41;4947120;28;20151;-69
2022/03/30 03:30:29;;;;;;;27.23;22.30;;;;;;;8.81;65.48;99792.38;4956103;28;20128;-69
2022/03/30 03:32:54;;;;;;;29.83;22.95;;;;;;;8.81;65.34;99798.47;4961330;28;20069;-69
2022/03/30 03:35:20;;;;;;;32.78;23.60;;;;;;;8.77;65.72;99794.47;4941555;28;20025;-69
2022/03/30 03:37:45;;;;;;;36.50;24.48;;;;;;;8.70;65.60;99788.13;4956052;28;20939;-69
2022/03/30 03:40:11;;;;;;;31.38;22.98;;;;;;;8.62;65.41;99788.06;4953888;28;20330;-68
2022/03/30 03:42:37;;;;;;;31.42;22.85;;;;;;;8.68;65.83;99785.66;4960617;28;20278;-69
2022/03/30 03:45:03;;;;;;;29.55;23.30;;;;;;;8.63;65.29;99784.44;4957415;28;20095;-68
2022/03/30 03:47:28;;;;;;;30.25;23.27;;;;;;;8.79;65.17;99786.44;4962023;28;20019;-68
2022/03/30 03:49:53;;;;;;;32.50;23.15;;;;;;;8.85;64.93;99789.28;4933761;28;20145;-68
2022/03/30 03:52:19;;;;;;;35.00;24.25;;;;;;;8.62;64.82;99788.91;4966821;28;20254;-68
2022/03/30 03:54:44;;;;;;;33.55;23.27;;;;;;;8.77;65.12;99794.47;4970342;28;20932;-69
2022/03/30 03:57:09;;;;;;;31.58;24.13;;;;;;;8.58;64.71;99800.72;4914714;28;20027;-68
2022/03/30 03:59:35;;;;;;;32.85;24.10;;;;;;;8.50;64.71;99795.34;4952324;28;20080;-68
2022/03/30 04:02:01;;;;;;;32.38;23.17;;;;;;;8.50;64.96;99803.25;4942426;28;20023;-69
2022/03/30 04:04:26;;;;;;;33.10;24.52;;;;;;;8.54;64.73;99804.63;4956011;28;20007;-68
2022/03/30 04:06:51;;;;;;;33.88;23.05;;;;;;;8.29;65.90;99796.41;4947810;28;21081;-69
2022/03/30 04:09:17;;;;;;;30.95;24.30;;;;;;;8.30;66.03;99792.75;4948465;28;20128;-68
2022/03/30 04:11:42;;;;;;;32.33;24.77;;;;;;;8.19;66.16;99792.94;4947338;28;20006;-68
2022/03/30 04:14:08;;;;;;;35.25;23.65;;;;;;;8.38;65.94;99792.06;4943483;28;20015;-69
2022/03/30 04:16:33;;;;;;;32.38;24.08;;;;;;;8.36;65.37;99797.47;4926464;28;20015;-68
2022/03/30 04:18:58;;;;;;;37.53;23.80;;;;;;;8.48;66.24;99792.03;4957653;28;20925;-69
2022/03/30 04:21:24;;;;;;;30.45;23.17;;;;;;;8.45;66.51;99790.50;4950380;28;20034;-69
2022/03/30 04:23:49;;;;;;;30.73;23.80;;;;;;;8.49;65.75;99783.13;4947914;28;20034;-69
2022/03/30 04:26:14;;;;;;;31.90;23.17;;;;;;;8.43;65.80;99784.50;4931483;28;20019;-69
2022/03/30 04:28:43;;;;;;;33.30;24.73;;;;;;;8.33;65.59;99789.00;4948145;28;20131;-70
2022/03/30 04:31:08;;;;;;;35.97;23.52;;;;;;;8.45;65.28;99789.66;4957495;28;20531;-70
2022/03/30 04:33:34;;;;;;;32.78;24.40;;;;;;;8.28;66.12;99780.69;4943259;28;20706;-70
2022/03/30 04:36:00;;;;;;;34.30;24.50;;;;;;;8.34;66.19;99782.78;4962313;28;20125;-69
2022/03/30 04:38:25;;;;;;;35.00;24.63;;;;;;;8.22;65.81;99777.69;4929862;28;20030;-70
2022/03/30 04:40:50;;;;;;;34.25;24.45;;;;;;;8.41;66.20;99778.56;4966231;28;20018;-69
2022/03/30 04:43:16;;;;;;;31.10;23.88;;;;;;;8.28;66.53;99776.28;4974975;28;20030;-70
2022/03/30 04:45:41;;;;;;;35.15;25.10;;;;;;;8.22;66.33;99772.41;4959452;28;20239;-69
2022/03/30 04:48:07;;;;;;;31.58;24.10;;;;;;;8.29;66.16;99774.47;4949559;28;20042;-69
2022/03/30 04:50:32;;;;;;;31.17;23.52;;;;;;;8.22;66.62;99775.06;4942456;28;20010;-69
2022/03/30 04:52:57;;;;;;;33.08;23.80;;;;;;;8.36;66.93;99773.75;4963297;28;20038;-69
2022/03/30 04:55:23;;;;;;;36.35;23.83;;;;;;;8.44;66.16;99773.00;4957775;28;20480;-69
2022/03/30 04:57:48;;;;;;;31.27;23.55;;;;;;;8.37;66.84;99774.56;4950578;28;20011;-70
2022/03/30 05:00:14;;;;;;;32.70;23.75;;;;;;;8.18;67.69;99767.56;4959571;28;20783;-70
2022/03/30 05:02:40;;;;;;;33.85;24.02;;;;;;;8.22;67.14;99771.56;4959391;28;20079;-69
2022/03/30 05:05:06;;;;;;;34.08;24.98;;;;;;;8.26;66.65;99770.31;4957452;28;20564;-69
2022/03/30 05:07:31;;;;;;;37.67;25.02;;;;;;;8.11;66.64;99774.38;4940734;28;20022;-69
2022/03/30 05:09:57;;;;;;;35.17;24.80;;;;;;;8.00;67.00;99770.97;4966182;28;20061;-69
2022/03/30 05:12:23;;;;;;;36.03;24.83;;;;;;;7.90;67.06;99760.47;4941748;28;20478;-69
2022/03/30 05:14:49;;;;;;;36.13;25.45;;;;;;;8.00;66.89;99772.78;4956282;28;20622;-71
2022/03/30 05:17:15;;;;;;;33.97;26.05;;;;;;;8.21;66.06;99768.13;4972951;28;20025;-71
2022/03/30 05:19:40;;;;;;;33.78;26.15;;;;;;;8.25;66.21;99769.50;4955777;28;20030;-71
2022/03/30 05:22:06;;;;;;;35.80;25.45;;;;;;;8.44;65.55;99778.28;4976079;28;20006;-70
2022/03/30 05:24:31;;;;;;;36.55;25.55;;;;;;;8.55;65.67;99769.38;4953796;28;20227;-71
2022/03/30 05:26:57;;;;;;;33.35;25.83;;;;;;;8.44;66.17;99765.09;4952154;28;20368;-70
2022/03/30 05:29:22;;;;;;;36.28;25.52;;;;;;;8.49;65.28;99770.78;4982645;28;20002;-70
2022/03/30 05:31:48;;;;;;;34.47;25.88;;;;;;;8.27;64.85;99765.88;4960154;28;20827;-70
2022/03/30 05:34:13;;;;;;;37.70;25.95;;;;;;;8.13;65.33;99780.38;4972266;28;20009;-71
2022/03/30 05:36:38;;;;;;;39.72;26.60;;;;;;;8.15;65.39;99781.88;4990464;28;20929;-70
2022/03/30 05:39:04;;;;;;;35.22;26.23;;;;;;;8.04;65.95;99771.53;4991555;28;20042;-71
2022/03/30 05:41:30;;;;;;;35.67;26.50;;;;;;;8.02;65.95;99774.31;4979143;28;20037;-71
2022/03/30 05:43:55;;;;;;;35.03;26.65;;;;;;;8.00;65.86;99770.16;4960713;28;20341;-70
2022/03/30 05:46:21;;;;;;;36.10;26.33;;;;;;;7.97;65.91;99773.09;4962349;28;20014;-71
2022/03/30 05:48:46;;;;;;;39.80;26.67;;;;;;;7.94;66.03;99771.56;4953211;28;20058;-71
2022/03/30 05:51:12;;;;;;;37.05;26.40;;;;;;;8.05;65.67;99774.00;4947525;28;20858;-70
2022/03/30 05:53:37;;;;;;;35.70;25.88;;;;;;;8.00;65.66;99773.59;4955713;28;20009;-71
2022/03/30 05:56:03;;;;;;;35.95;26.50;;;;;;;7.98;65.66;99772.94;4955839;28;20026;-71
2022/03/30 05:58:28;;;;;;;37.15;26.70;;;;;;;7.94;65.15;99781.25;4938028;28;21175;-71
2022/03/30 06:00:56;;;;;;;35.03;26.63;;;;;;;7.97;65.10;99780.97;4958263;28;20049;-70
2022/03/30 06:03:22;;;;;;;40.67;26.70;;;;;;;7.98;64.56;99782.63;4967308;28;20431;-72
2022/03/30 06:05:47;;;;;;;34.15;26.30;;;;;;;7.99;64.90;99779.03;4962086;28;20014;-70
2022/03/30 06:08:13;;;;;;;34.35;25.60;;;;;;;7.97;64.75;99775.72;4960337;28;20025;-70
2022/03/30 06:10:38;;;;;;;34.05;25.70;;;;;;;7.97;64.76;99773.91;4968016;28;20075;-71
2022/03/30 06:13:04;;;;;;;36.67;26.63;;;;;;;7.87;65.14;99781.00;4961886;28;20033;-70
2022/03/30 06:15:29;;;;;;;34.45;26.02;;;;;;;7.93;64.52;99779.59;4960432;28;20117;-70
2022/03/30 06:17:55;;;;;;;34.17;26.27;;;;;;;7.92;65.10;99781.38;4964067;28;20262;-72
2022/03/30 06:20:24;;;;;;;34.42;26.33;;;;;;;7.97;64.30;99770.44;4940558;28;20019;-71
2022/03/30 06:22:51;;;;;;;39.25;26.48;;;;;;;8.18;64.03;99783.38;4949390;28;20041;-70
2022/03/30 06:25:17;;;;;;;36.88;25.98;;;;;;;8.15;63.63;99788.94;4957295;28;20026;-70
2022/03/30 06:27:42;;;;;;;36.03;25.70;;;;;;;8.21;63.33;99786.56;4945563;28;20432;-70
2022/03/30 06:30:08;;;;;;;39.65;26.65;;;;;;;8.21;63.71;99791.84;4942815;28;20349;-70
2022/03/30 06:32:35;;;;;;;36.92;25.95;;;;;;;8.27;63.32;99787.78;4960797;28;20053;-70
2022/03/30 06:35:01;;;;;;;36.95;26.58;;;;;;;8.22;63.14;99793.50;4954819;28;20011;-71
2022/03/30 06:37:26;;;;;;;36.05;26.42;;;;;;;8.35;62.79;99785.25;4956834;28;20066;-71
2022/03/30 06:39:52;;;;;;;40.30;25.48;;;;;;;8.49;62.77;99785.75;4960230;28;20221;-71
2022/03/30 06:42:17;;;;;;;39.38;25.80;;;;;;;8.53;62.08;99793.25;4977186;28;20022;-72
2022/03/30 06:44:43;;;;;;;35.83;25.98;;;;;;;8.40;62.42;99787.44;4961633;28;20480;-71
2022/03/30 06:47:08;;;;;;;38.00;25.77;;;;;;;8.41;62.14;99786.47;4971978;28;20145;-71
2022/03/30 06:49:35;;;;;;;34.20;25.77;;;;;;;8.37;62.48;99782.47;4947316;28;20006;-72
2022/03/30 06:52:00;;;;;;;37.03;25.05;;;;;;;8.60;61.38;99775.00;4984960;28;20513;-72
2022/03/30 06:54:26;;;;;;;39.78;26.70;;;;;;;8.62;60.52;99780.97;4980348;28;20443;-72
2022/03/30 06:56:51;;;;;;;41.60;25.63;;;;;;;8.56;61.54;99777.13;4967741;28;20468;-72
2022/03/30 06:59:18;;;;;;;35.45;25.90;;;;;;;8.64;61.57;99779.00;4962427;28;20046;-70
2022/03/30 07:01:43;;;;;;;42.15;26.17;;;;;;;8.73;61.93;99777.31;4962285;28;20018;-70
2022/03/30 07:04:09;;;;;;;39.88;27.05;;;;;;;8.86;60.86;99790.16;4967556;28;20493;-71
2022/03/30 07:06:34;;;;;;;35.00;24.90;;;;;;;9.13;60.13;99791.88;4949172;28;20029;-71
2022/03/30 07:11:43;;;;;;;41.70;27.10;;;;;;;9.25;59.85;99787.19;4973501;28;20032;-71
2022/03/30 07:14:09;;;;;;;34.65;25.83;;;;;;;9.34;59.51;99791.56;4941786;28;20951;-71
2022/03/30 07:16:34;;;;;;;37.13;26.00;;;;;;;9.36;59.16;99779.03;4941965;28;20007;-70
2022/03/30 07:18:59;;;;;;;35.78;25.80;;;;;;;9.38;59.87;99781.56;4961366;28;20512;-71
2022/03/30 07:21:25;;;;;;;33.80;24.50;;;;;;;9.48;59.64;99778.81;4963432;28;20398;-71
2022/03/30 07:23:50;;;;;;;35.30;25.40;;;;;;;9.47;59.32;99785.88;4963935;28;20251;-70
2022/03/30 07:26:16;;;;;;;32.58;24.90;;;;;;;9.50;58.62;99787.41;4939524;28;20018;-71
2022/03/30 07:28:41;;;;;;;34.80;24.13;;;;;;;9.43;58.13;99784.53;4959194;28;20499;-70
2022/03/30 07:31:07;;;;;;;33.22;24.02;;;;;;;9.51;58.41;99789.88;4963813;28;20026;-70
2022/03/30 07:33:33;;;;;;;35.53;24.17;;;;;;;9.50;57.97;99779.47;4970249;28;20863;-71
2022/03/30 07:35:59;;;;;;;39.25;26.05;;;;;;;9.66;57.93;99784.03;4944223;28;20904;-70
2022/03/30 07:38:24;;;;;;;34.63;24.25;;;;;;;9.79;58.08;99789.75;4938971;28;20045;-70
2022/03/30 07:40:50;;;;;;;32.08;23.98;;;;;;;9.93;56.71;99785.72;4941935;28;21079;-71
2022/03/30 07:43:16;;;;;;;32.25;24.10;;;;;;;10.14;56.47;99780.06;4956255;28;20035;-70
2022/03/30 07:45:41;;;;;;;34.58;23.67;;;;;;;10.22;57.09;99777.41;4975664;28;20088;-71
2022/03/30 07:48:08;;;;;;;30.15;22.42;;;;;;;10.21;57.33;99789.00;4959906;28;20072;-71
2022/03/30 07:50:34;;;;;;;34.15;23.70;;;;;;;10.20;55.91;99787.34;4960811;28;20084;-71
2022/03/30 07:52:59;;;;;;;32.92;23.50;;;;;;;10.07;56.77;99784.31;4965496;28;20787;-71
2022/03/30 07:55:25;;;;;;;33.00;23.35;;;;;;;10.03;56.87;99780.31;4950569;28;20340;-71
2022/03/30 07:57:51;;;;;;;28.80;21.42;;;;;;;10.15;55.84;99773.75;4960542;28;20022;-71
2022/03/30 08:00:16;;;;;;;31.45;21.92;;;;;;;10.45;55.15;99771.63;4966577;28;20893;-70
2022/03/30 08:02:43;;;;;;;29.20;19.80;;;;;;;10.54;55.17;99765.34;4960117;28;20022;-72
2022/03/30 08:05:13;;;;;;;29.63;21.08;;;;;;;10.83;54.19;99766.75;4968558;28;20006;-72
2022/03/30 08:07:45;;;;;;;28.35;20.00;;;;;;;10.74;53.02;99759.78;4953906;28;20021;-71
2022/03/30 08:10:10;;;;;;;28.90;19.70;;;;;;;10.65;52.96;99758.94;4946629;28;20123;-70
2022/03/30 08:12:37;;;;;;;28.98;19.42;;;;;;;10.72;53.26;99753.84;4946430;28;20019;-73
2022/03/30 08:15:03;;;;;;;26.20;18.27;;;;;;;11.17;51.79;99755.22;4970747;28;20578;-71
2022/03/30 08:17:29;;;;;;;27.70;19.10;;;;;;;11.33;51.24;99760.50;4947791;28;20014;-70
2022/03/30 08:19:57;;;;;;;29.52;18.88;;;;;;;11.50;50.91;99755.19;4953627;28;20050;-71
2022/03/30 08:22:25;;;;;;;27.95;19.40;;;;;;;11.48;51.31;99759.84;4961396;28;20002;-72
2022/03/30 08:24:59;;;;;;;28.17;19.60;;;;;;;11.71;50.01;99759.97;4969305;28;20754;-71
2022/03/30 08:27:29;;;;;;;25.65;18.55;;;;;;;11.80;49.61;99752.81;4959956;28;20832;-70
2022/03/30 08:29:54;;;;;;;24.45;18.42;;;;;;;11.78;49.95;99760.13;4959982;28;20169;-70
2022/03/30 08:32:21;;;;;;;28.25;17.35;;;;;;;11.83;49.17;99761.28;4958942;28;20003;-71
2022/03/30 08:34:47;;;;;;;25.67;17.08;;;;;;;11.88;48.21;99749.34;4965254;28;20021;-71
2022/03/30 08:37:12;;;;;;;26.13;17.70;;;;;;;12.11;47.96;99752.09;4958948;28;20811;-71
2022/03/30 08:39:38;;;;;;;25.45;18.38;;;;;;;11.98;47.71;99750.81;4955963;28;20030;-71
2022/03/30 08:42:04;;;;;;;24.42;17.33;;;;;;;11.82;48.98;99754.31;4976589;28;20011;-71
2022/03/30 08:44:30;;;;;;;23.95;18.23;;;;;;;11.41;48.66;99754.38;4955529;28;20096;-70
2022/03/30 08:46:56;;;;;;;23.27;17.00;;;;;;;11.65;48.65;99760.66;4990164;28;20054;-71
2022/03/30 08:49:21;;;;;;;24.38;17.42;;;;;;;11.75;48.64;99744.56;4960965;28;20743;-71
2022/03/30 08:51:49;;;;;;;25.83;17.95;;;;;;;11.97;49.26;99758.94;4950285;28;20011;-70
2022/03/30 08:54:16;;;;;;;25.15;16.80;;;;;;;12.02;47.95;99752.13;4952105;28;20023;-71
2022/03/30 08:56:41;;;;;;;26.85;17.83;;;;;;;12.47;46.65;99751.63;4921807;28;20026;-71
2022/03/30 08:59:12;;;;;;;26.20;17.35;;;;;;;12.96;45.72;99748.69;4941810;28;20548;-71
2022/03/30 09:01:39;;;;;;;21.15;16.10;;;;;;;13.32;45.46;99750.72;4935884;28;20101;-71
2022/03/30 09:04:09;;;;;;;27.25;17.35;;;;;;;13.58;44.12;99746.88;4952354;28;20472;-72
2022/03/30 09:06:47;;;;;;;26.50;17.08;;;;;;;13.49;43.94;99746.09;4956659;28;20098;-71
2022/03/30 09:09:14;;;;;;;22.85;16.60;;;;;;;13.60;44.05;99752.00;4971195;28;20025;-70
2022/03/30 09:11:52;;;;;;;27.48;17.30;;;;;;;13.90;42.84;99750.19;4958838;28;20022;-71
2022/03/30 09:14:18;;;;;;;29.50;17.08;;;;;;;14.31;43.79;99746.22;4961416;28;20021;-70
2022/03/30 09:16:45;;;;;;;23.33;16.02;;;;;;;14.34;40.84;99746.69;4951126;28;20023;-71
2022/03/30 09:19:12;;;;;;;22.23;15.52;;;;;;;14.67;39.71;99740.94;4947862;28;20045;-71
2022/03/30 09:21:42;;;;;;;18.38;13.95;;;;;;;14.94;38.25;99730.56;4939537;28;21173;-70
2022/03/30 09:24:07;;;;;;;23.73;15.48;;;;;;;15.31;37.83;99735.81;4924937;28;20015;-71
2022/03/30 09:26:33;;;;;;;22.85;15.18;;;;;;;15.15;38.05;99729.72;4940264;28;20011;-71
2022/03/30 09:28:58;;;;;;;20.73;15.20;;;;;;;15.15;39.17;99731.59;4948865;28;20018;-71
2022/03/30 09:31:25;;;;;;;20.38;14.50;;;;;;;15.72;37.96;99737.75;4970613;28;20015;-72
2022/03/30 09:33:53;;;;;;;21.45;14.77;;;;;;;15.97;36.84;99735.47;4955808;28;20062;-71
2022/03/30 09:36:29;;;;;;;19.23;14.55;;;;;;;16.18;37.11;99739.06;4941330;28;20893;-71
2022/03/30 09:38:54;;;;;;;20.40;14.98;;;;;;;16.54;36.97;99724.59;4934685;28;20057;-71
2022/03/30 09:41:20;;;;;;;20.10;15.32;;;;;;;16.93;34.97;99723.88;4942499;28;20522;-71
2022/03/30 09:43:45;;;;;;;20.83;14.45;;;;;;;17.28;35.65;99725.56;4933568;28;20467;-71
2022/03/30 09:46:11;;;;;;;18.10;15.45;;;;;;;16.71;36.51;99720.56;4960455;28;20534;-72
2022/03/30 09:48:50;;;;;;;20.17;15.90;;;;;;;16.57;35.81;99724.19;4953462;28;20025;-72
2022/03/30 09:51:16;;;;;;;18.80;14.93;;;;;;;17.52;35.67;99724.13;4957560;28;20023;-72
2022/03/30 09:53:42;;;;;;;18.02;14.05;;;;;;;17.80;33.80;99718.50;4974711;28;20030;-71
2022/03/30 09:56:29;;;;;;;17.48;13.55;;;;;;;17.90;33.91;99709.22;4963536;28;20033;-72
2022/03/30 09:58:59;;;;;;;20.10;14.00;;;;;;;17.91;34.19;99706.38;4959388;28;20818;-70
2022/03/30 10:01:29;;;;;;;17.13;13.30;;;;;;;18.30;33.92;99701.06;4941866;28;20516;-71
2022/03/30 10:03:54;;;;;;;18.67;14.40;;;;;;;18.48;32.58;99703.84;4955467;28;20126;-70
2022/03/30 10:06:24;;;;;;;20.50;13.40;;;;;;;18.56;32.67;99704.63;4956508;28;20013;-69
2022/03/30 10:08:51;;;;;;;16.58;13.93;;;;;;;18.75;32.86;99702.88;4963999;28;20027;-71
2022/03/30 10:11:17;;;;;;;17.23;13.10;;;;;;;18.71;32.29;99691.75;4937412;28;20026;-71
2022/03/30 10:13:43;;;;;;;18.05;13.43;;;;;;;19.05;32.18;99701.25;4962054;28;20026;-71
2022/03/30 10:16:09;;;;;;;15.55;13.23;;;;;;;18.86;31.14;99692.28;4958439;28;20022;-71
2022/03/30 10:18:35;;;;;;;16.23;12.65;;;;;;;19.70;30.79;99691.19;4945058;28;20036;-70
2022/03/30 10:21:25;;;;;;;17.88;12.93;;;;;;;19.64;31.50;99689.38;4954984;28;20011;-73
2022/03/30 10:24:03;;;;;;;16.77;13.05;;;;;;;19.11;31.50;99690.72;4948306;28;20742;-72
2022/03/30 10:26:46;;;;;;;14.98;13.02;;;;;;;19.46;30.15;99693.69;4957347;28;20117;-70
2022/03/30 10:29:11;;;;;;;20.30;13.03;;;;;;;19.65;31.66;99680.28;4941197;28;20045;-71
2022/03/30 10:31:37;;;;;;;17.33;12.45;;;;;;;19.49;31.51;99685.19;4949594;28;19999;-71
2022/03/30 10:34:22;;;;;;;16.38;13.13;;;;;;;19.87;31.80;99689.56;4940489;28;20121;-71
2022/03/30 10:36:59;;;;;;;17.65;13.07;;;;;;;20.25;30.68;99676.94;4962942;28;20096;-72
2022/03/30 10:39:27;;;;;;;13.80;12.20;;;;;;;20.89;28.99;99679.94;4955226;28;20038;-72
2022/03/30 10:41:54;;;;;;;14.75;12.75;;;;;;;21.33;28.84;99665.38;4962896;28;20152;-72
2022/03/30 10:44:38;;;;;;;13.60;12.02;;;;;;;20.66;27.69;99669.09;4975874;28;20049;-72
2022/03/30 10:47:12;;;;;;;;;;;;;;;21.03;30.17;99663.63;4991139;28;20735;-71
2022/03/30 10:49:50;;;;;;;16.38;11.15;;;;;;;21.35;28.90;99660.56;4973455;28;20192;-73
2022/03/30 10:52:40;;;;;;;12.60;10.85;;;;;;;21.89;27.10;99663.91;4960996;28;20337;-73
2022/03/30 10:55:14;;;;;;;13.80;10.95;;;;;;;20.95;28.31;99655.88;4980534;28;20007;-72
2022/03/30 10:57:46;;;;;;;13.77;11.48;;;;;;;21.82;27.00;99651.66;4975739;28;20453;-71
2022/03/30 11:00:18;;;;;;;15.88;12.27;;;;;;;21.07;27.50;99654.03;4968096;28;20043;-72
2022/03/30 11:02:44;;;;;;;13.55;11.43;;;;;;;21.99;27.38;99657.13;4971242;28;20152;-72
2022/03/30 11:05:10;;;;;;;12.55;11.18;;;;;;;22.36;27.33;99654.06;4952202;28;20022;-72
2022/03/30 11:07:36;;;;;;;14.95;11.50;;;;;;;22.58;27.17;99648.81;4941899;28;20052;-72
2022/03/30 11:10:23;;;;;;;16.48;11.43;;;;;;;22.84;25.99;99644.63;4963058;28;20316;-72
2022/03/30 11:13:11;;;;;;;12.57;11.27;;;;;;;23.06;26.28;99644.72;4961600;28;20021;-72
2022/03/30 11:16:07;;;;;;;12.85;11.48;;;;;;;22.62;26.32;99642.69;4989793;28;20014;-72
2022/03/30 11:18:33;;;;;;;16.60;11.95;;;;;;;22.67;26.76;99638.44;4973466;28;20026;-72
2022/03/30 11:21:15;;;;;;;16.77;12.63;;;;;;;21.83;28.03;99631.72;4942434;28;20091;-72
2022/03/30 11:23:57;;;;;;;17.48;12.85;;;;;;;21.66;27.87;99635.19;4964697;28;20167;-71
2022/03/30 11:26:23;;;;;;;16.48;12.98;;;;;;;21.73;29.06;99618.88;4956085;28;20072;-71